createdAt,value
2017-11-17T00:00:20.544Z,8.10
2017-11-17T00:02:53.987Z,8.00
2017-11-17T00:05:27.556Z,8.10
2017-11-17T00:08:02.060Z,8.10
2017-11-17T00:10:35.735Z,8.10
2017-11-17T00:13:09.402Z,8.10
2017-11-17T00:15:42.919Z,8.00
2017-11-17T00:18:16.663Z,8.10
2017-11-17T00:20:50.988Z,8.00
2017-11-17T00:23:24.593Z,8.00
2017-11-17T00:25:58.194Z,8.00
2017-11-17T00:28:31.683Z,8.00
2017-11-17T00:31:06.006Z,7.90
2017-11-17T00:33:39.574Z,7.90
2017-11-17T00:36:13.407Z,8.00
2017-11-17T00:38:46.912Z,8.00
2017-11-17T00:41:20.451Z,8.00
2017-11-17T00:43:54.107Z,8.10
2017-11-17T00:46:28.608Z,8.00
2017-11-17T00:49:03.731Z,7.90
2017-11-17T00:51:37.374Z,7.90
2017-11-17T00:54:10.827Z,7.90
2017-11-17T00:56:45.399Z,7.90
2017-11-17T00:59:19.669Z,8.00
2017-11-17T01:01:53.368Z,7.90
2017-11-17T01:04:27.806Z,7.90
2017-11-17T01:07:01.785Z,7.90
2017-11-17T01:09:35.449Z,8.00
2017-11-17T01:12:09.090Z,8.00
2017-11-17T01:14:42.851Z,8.10
2017-11-17T01:17:16.650Z,8.00
2017-11-17T01:19:50.212Z,8.00
2017-11-17T01:22:23.803Z,8.00
2017-11-17T01:24:57.459Z,8.00
2017-11-17T01:27:31.065Z,7.90
2017-11-17T01:30:04.527Z,8.00
2017-11-17T01:32:38.143Z,8.00
2017-11-17T01:35:13.012Z,8.10
2017-11-17T01:37:46.691Z,8.10
2017-11-17T01:40:20.365Z,8.00
2017-11-17T01:42:54.736Z,8.00
2017-11-17T01:45:28.421Z,8.10
2017-11-17T01:48:02.112Z,8.10
2017-11-17T01:50:35.670Z,8.10
2017-11-17T01:53:09.412Z,8.00
2017-11-17T01:55:43.228Z,8.10
2017-11-17T01:58:16.795Z,8.20
2017-11-17T02:00:50.543Z,8.20
2017-11-17T02:03:24.236Z,8.10
2017-11-17T02:05:57.731Z,8.10
2017-11-17T02:08:31.438Z,8.10
2017-11-17T02:11:05.036Z,8.10
2017-11-17T02:13:39.246Z,8.10
2017-11-17T02:16:12.831Z,8.00
2017-11-17T02:18:47.271Z,8.10
2017-11-17T02:21:20.976Z,8.10
2017-11-17T02:23:54.481Z,8.00
2017-11-17T02:26:27.971Z,8.10
2017-11-17T02:29:02.279Z,8.10
2017-11-17T02:31:35.893Z,8.10
2017-11-17T02:34:10.438Z,8.00
2017-11-17T02:36:44.022Z,8.00
2017-11-17T02:39:18.545Z,8.00
2017-11-17T02:41:52.242Z,8.00
2017-11-17T02:44:25.825Z,8.10
2017-11-17T02:47:00.637Z,8.10
2017-11-17T02:49:34.283Z,8.10
2017-11-17T02:52:07.975Z,8.00
2017-11-17T02:54:41.571Z,8.00
2017-11-17T02:57:15.275Z,8.10
2017-11-17T02:59:48.880Z,8.00
2017-11-17T03:02:22.474Z,8.00
2017-11-17T03:04:56.075Z,8.10
2017-11-17T03:07:30.270Z,8.10
2017-11-17T03:10:03.894Z,8.00
2017-11-17T03:12:37.468Z,8.00
2017-11-17T03:15:11.069Z,8.10
2017-11-17T03:17:44.796Z,8.10
2017-11-17T03:20:18.498Z,8.10
2017-11-17T03:22:52.199Z,8.10
2017-11-17T03:25:25.806Z,8.00
2017-11-17T03:27:59.380Z,8.00
2017-11-17T03:30:33.170Z,8.00
2017-11-17T03:33:06.711Z,8.10
2017-11-17T03:35:40.306Z,8.10
2017-11-17T03:38:13.907Z,8.00
2017-11-17T03:40:47.714Z,8.00
2017-11-17T03:43:21.223Z,8.10
2017-11-17T03:48:24.011Z,8.00
2017-11-17T03:50:57.819Z,8.00
2017-11-17T03:53:31.518Z,8.10
2017-11-17T03:56:05.178Z,8.10
2017-11-17T03:58:39.230Z,8.10
2017-11-17T04:01:12.935Z,8.10
2017-11-17T04:03:46.946Z,8.10
2017-11-17T04:06:20.619Z,8.10
2017-11-17T04:08:54.216Z,8.10
2017-11-17T04:11:27.764Z,8.10
2017-11-17T04:14:01.247Z,8.00
2017-11-17T04:16:34.819Z,8.00
2017-11-17T04:19:08.418Z,8.10
2017-11-17T04:21:42.050Z,8.10
2017-11-17T04:24:15.854Z,8.00
2017-11-17T04:26:49.460Z,8.00
2017-11-17T04:29:22.959Z,8.00
2017-11-17T04:31:56.554Z,8.00
2017-11-17T04:34:30.258Z,8.00
2017-11-17T04:37:03.935Z,8.10
2017-11-17T04:39:37.577Z,8.10
2017-11-17T04:42:11.147Z,8.10
2017-11-17T04:44:44.764Z,8.00
2017-11-17T04:47:18.277Z,8.00
2017-11-17T04:49:52.646Z,8.00
2017-11-17T04:52:26.388Z,7.90
2017-11-17T04:54:59.882Z,8.00
2017-11-17T04:57:33.595Z,8.00
2017-11-17T05:00:07.295Z,8.00
2017-11-17T05:02:41.100Z,8.00
2017-11-17T05:05:14.902Z,8.00
2017-11-17T05:07:48.607Z,8.00
2017-11-17T05:10:22.106Z,8.00
2017-11-17T05:12:56.522Z,8.10
2017-11-17T05:15:30.131Z,8.10
2017-11-17T05:18:03.725Z,8.10
2017-11-17T05:20:37.222Z,8.10
2017-11-17T05:23:10.823Z,8.00
2017-11-17T05:25:44.386Z,8.00
2017-11-17T05:28:18.235Z,8.00
2017-11-17T05:30:51.934Z,7.90
2017-11-17T05:33:25.542Z,8.00
2017-11-17T05:35:59.231Z,8.10
2017-11-17T05:38:33.730Z,8.00
2017-11-17T05:41:08.182Z,8.00
2017-11-17T05:43:41.775Z,8.00
2017-11-17T05:46:15.330Z,8.00
2017-11-17T05:48:49.050Z,8.00
2017-11-17T05:51:22.803Z,8.00
2017-11-17T05:53:57.310Z,8.00
2017-11-17T05:56:30.846Z,8.00
2017-11-17T05:59:04.613Z,8.00
2017-11-17T06:01:38.317Z,7.90
2017-11-17T06:04:11.975Z,8.00
2017-11-17T06:06:46.134Z,8.00
2017-11-17T06:09:19.739Z,7.90
2017-11-17T06:11:53.305Z,8.00
2017-11-17T06:14:26.934Z,8.00
2017-11-17T06:17:01.255Z,8.00
2017-11-17T06:19:34.980Z,8.00
2017-11-17T06:22:09.354Z,8.00
2017-11-17T06:24:43.873Z,8.00
2017-11-17T06:27:17.602Z,8.00
2017-11-17T06:29:51.102Z,7.90
2017-11-17T06:32:24.704Z,7.90
2017-11-17T06:34:58.243Z,7.90
2017-11-17T06:37:31.854Z,7.90
2017-11-17T06:40:06.226Z,7.90
2017-11-17T06:42:39.823Z,7.90
2017-11-17T06:45:13.391Z,7.90
2017-11-17T06:47:47.026Z,7.90
2017-11-17T06:50:21.446Z,8.00
2017-11-17T06:52:55.065Z,8.00
2017-11-17T06:55:29.471Z,8.00
2017-11-17T06:58:02.961Z,8.00
2017-11-17T07:00:36.531Z,8.00
2017-11-17T07:03:10.115Z,7.90
2017-11-17T07:05:43.683Z,7.90
2017-11-17T07:08:17.377Z,7.90
2017-11-17T07:10:51.070Z,7.90
2017-11-17T07:13:25.391Z,7.90
2017-11-17T07:15:59.096Z,7.90
2017-11-17T07:18:32.594Z,7.90
2017-11-17T07:21:06.151Z,7.90
2017-11-17T07:23:39.790Z,7.90
2017-11-17T07:26:13.390Z,7.90
2017-11-17T07:28:46.975Z,8.00
2017-11-17T07:31:20.693Z,7.90
2017-11-17T07:33:54.783Z,7.90
2017-11-17T07:36:28.724Z,8.00
2017-11-17T07:39:02.253Z,8.00
2017-11-17T07:41:35.918Z,8.00
2017-11-17T07:44:09.527Z,8.00
2017-11-17T07:46:43.223Z,8.00
2017-11-17T07:49:16.814Z,8.10
2017-11-17T07:51:50.404Z,8.00
2017-11-17T07:54:24.133Z,8.10
2017-11-17T07:56:57.591Z,8.10
2017-11-17T07:59:31.163Z,8.10
2017-11-17T08:02:05.535Z,8.10
2017-11-17T08:04:39.838Z,8.10
2017-11-17T08:07:13.644Z,8.10
2017-11-17T08:09:47.378Z,8.10
2017-11-17T08:12:20.978Z,8.20
2017-11-17T08:14:54.778Z,8.20
2017-11-17T08:20:36.135Z,8.10
2017-11-17T08:23:09.836Z,8.20
2017-11-17T08:25:43.279Z,8.10
2017-11-17T08:28:16.882Z,8.30
2017-11-17T08:30:50.346Z,8.20
2017-11-17T08:33:23.987Z,8.20
2017-11-17T08:35:58.312Z,8.30
2017-11-17T08:38:32.101Z,8.30
2017-11-17T08:41:05.638Z,8.30
2017-11-17T08:43:39.306Z,8.30
2017-11-17T08:46:12.818Z,8.30
2017-11-17T08:48:46.271Z,8.20
2017-11-17T08:51:19.804Z,8.20
2017-11-17T08:53:53.402Z,8.30
2017-11-17T08:56:27.206Z,8.10
2017-11-17T08:59:01.766Z,8.20
2017-11-17T09:01:35.541Z,8.20
2017-11-17T09:04:09.211Z,8.20
2017-11-17T09:06:43.658Z,8.30
2017-11-17T09:09:18.079Z,8.30
2017-11-17T09:11:51.579Z,8.30
2017-11-17T09:14:25.184Z,8.30
2017-11-17T09:16:58.778Z,8.30
2017-11-17T09:19:32.382Z,8.30
2017-11-17T09:22:05.979Z,8.30
2017-11-17T09:24:39.682Z,8.40
2017-11-17T09:27:13.286Z,8.40
2017-11-17T09:29:46.998Z,8.30
2017-11-17T09:32:21.512Z,8.30
2017-11-17T09:34:55.174Z,8.20
2017-11-17T09:37:29.344Z,8.20
2017-11-17T09:40:03.084Z,8.30
2017-11-17T09:42:36.748Z,8.30
2017-11-17T09:45:10.388Z,8.30
2017-11-17T09:47:44.002Z,8.30
2017-11-17T09:50:17.698Z,8.40
2017-11-17T09:52:51.444Z,8.40
2017-11-17T09:55:24.948Z,8.40
2017-11-17T09:57:58.646Z,8.40
2017-11-17T10:00:32.346Z,8.30
2017-11-17T10:03:05.847Z,8.40
2017-11-17T10:05:39.549Z,8.40
2017-11-17T10:08:13.111Z,8.40
2017-11-17T10:10:46.749Z,8.40
2017-11-17T10:13:20.259Z,8.40
2017-11-17T10:15:54.778Z,8.30
2017-11-17T10:18:28.347Z,8.30
2017-11-17T10:21:01.863Z,8.30
2017-11-17T10:23:36.198Z,8.30
2017-11-17T10:26:10.611Z,8.30
2017-11-17T10:28:44.209Z,8.30
2017-11-17T10:31:17.790Z,8.30
2017-11-17T10:33:52.107Z,8.40
2017-11-17T10:36:25.736Z,8.30
2017-11-17T10:38:59.503Z,8.40
2017-11-17T10:41:33.137Z,8.40
2017-11-17T10:44:07.455Z,8.40
2017-11-17T10:46:41.250Z,8.40
2017-11-17T10:49:14.830Z,8.40
2017-11-17T10:51:48.634Z,8.50
2017-11-17T10:54:22.374Z,8.50
2017-11-17T10:56:56.890Z,8.40
2017-11-17T10:59:33.305Z,8.50
2017-11-17T11:02:07.062Z,8.50
2017-11-17T11:04:41.442Z,8.60
2017-11-17T11:07:15.211Z,8.50
2017-11-17T11:09:48.859Z,8.60
2017-11-17T11:12:22.596Z,8.60
2017-11-17T11:14:56.603Z,8.60
2017-11-17T11:17:30.436Z,8.60
2017-11-17T11:20:04.015Z,8.60
2017-11-17T11:22:37.510Z,8.60
2017-11-17T11:25:11.211Z,8.60
2017-11-17T11:27:44.707Z,8.60
2017-11-17T11:30:18.195Z,8.60
2017-11-17T11:32:52.507Z,8.70
2017-11-17T11:35:26.330Z,8.70
2017-11-17T11:37:59.915Z,8.80
2017-11-17T11:40:33.739Z,8.70
2017-11-17T11:43:07.467Z,8.80
2017-11-17T11:45:40.983Z,8.80
2017-11-17T11:48:14.575Z,8.80
2017-11-17T11:50:48.115Z,8.90
2017-11-17T11:53:21.690Z,8.90
2017-11-17T11:55:55.222Z,8.90
2017-11-17T11:58:28.935Z,8.80
2017-11-17T12:01:02.650Z,8.90
2017-11-17T12:03:36.444Z,8.80
2017-11-17T12:06:10.019Z,8.90
2017-11-17T12:08:43.650Z,9.00
2017-11-17T12:11:17.153Z,9.00
2017-11-17T12:13:50.751Z,9.00
2017-11-17T12:16:24.355Z,8.90
2017-11-17T12:18:57.918Z,8.90
2017-11-17T12:21:32.374Z,9.00
2017-11-17T12:24:06.894Z,9.00
2017-11-17T12:26:40.600Z,8.90
2017-11-17T12:29:14.918Z,8.80
2017-11-17T12:31:48.467Z,8.80
2017-11-17T12:34:21.994Z,8.80
2017-11-17T12:36:55.519Z,8.80
2017-11-17T12:39:29.207Z,8.80
2017-11-17T12:42:02.818Z,8.80
2017-11-17T12:44:36.326Z,8.80
2017-11-17T12:47:10.227Z,8.80
2017-11-17T12:49:43.722Z,8.90
2017-11-17T12:52:17.366Z,8.90
2017-11-17T12:54:51.075Z,8.90
2017-11-17T12:57:24.530Z,8.80
2017-11-17T12:59:58.831Z,8.70
2017-11-17T13:02:32.954Z,8.70
2017-11-17T13:05:06.559Z,8.70
2017-11-17T13:07:40.054Z,8.80
2017-11-17T13:10:13.858Z,8.90
2017-11-17T13:12:47.464Z,8.90
2017-11-17T13:15:21.063Z,8.90
2017-11-17T13:17:55.483Z,8.80
2017-11-17T13:20:28.966Z,8.80
2017-11-17T13:23:02.582Z,8.80
2017-11-17T13:25:36.331Z,8.80
2017-11-17T13:28:10.502Z,8.80
2017-11-17T13:30:44.203Z,8.80
2017-11-17T13:33:17.685Z,8.90
2017-11-17T13:35:51.303Z,8.90
2017-11-17T13:38:25.600Z,8.80
2017-11-17T13:40:59.231Z,8.80
2017-11-17T13:43:33.538Z,9.00
2017-11-17T13:46:07.343Z,9.00
2017-11-17T13:48:41.023Z,9.00
2017-11-17T13:51:14.651Z,9.00
2017-11-17T13:53:48.910Z,9.00
2017-11-17T13:56:23.231Z,8.90
2017-11-17T13:58:56.964Z,8.90
2017-11-17T14:01:30.630Z,8.80
2017-11-17T14:04:04.143Z,8.90
2017-11-17T14:06:37.999Z,8.90
2017-11-17T14:09:12.007Z,8.90
2017-11-17T14:11:45.711Z,8.90
2017-11-17T14:14:19.510Z,8.90
2017-11-17T14:16:53.114Z,8.90
2017-11-17T14:19:27.606Z,8.90
2017-11-17T14:22:01.306Z,8.90
2017-11-17T14:24:35.047Z,8.80
2017-11-17T14:27:08.757Z,8.80
2017-11-17T14:29:42.453Z,8.80
2017-11-17T14:32:16.123Z,8.90
2017-11-17T14:34:49.606Z,8.90
2017-11-17T14:37:23.226Z,8.90
2017-11-17T14:39:56.815Z,8.90
2017-11-17T14:42:30.454Z,8.90
2017-11-17T14:45:04.055Z,8.90
2017-11-17T14:47:37.659Z,8.90
2017-11-17T14:50:12.178Z,8.90
2017-11-17T14:52:45.881Z,8.90
2017-11-17T14:55:19.484Z,9.00
2017-11-17T14:57:53.003Z,9.00
2017-11-17T15:00:26.568Z,9.00
2017-11-17T15:03:00.274Z,9.00
2017-11-17T15:05:34.635Z,8.90
2017-11-17T15:08:08.510Z,8.90
2017-11-17T15:10:42.058Z,8.90
2017-11-17T15:13:16.136Z,8.90
2017-11-17T15:15:49.938Z,8.90
2017-11-17T15:18:23.633Z,8.90
2017-11-17T15:20:57.195Z,8.90
2017-11-17T15:23:30.790Z,8.90
2017-11-17T15:26:04.498Z,8.90
2017-11-17T15:28:38.239Z,8.90
2017-11-17T15:31:11.811Z,8.90
2017-11-17T15:33:45.951Z,8.80
2017-11-17T15:36:19.394Z,8.80
2017-11-17T15:38:53.050Z,8.80
2017-11-17T15:41:26.653Z,8.80
2017-11-17T15:44:01.055Z,8.90
2017-11-17T15:46:34.780Z,8.90
2017-11-17T15:49:08.807Z,8.90
2017-11-17T15:51:43.518Z,9.00
2017-11-17T15:54:17.010Z,9.00
2017-11-17T15:56:50.719Z,9.00
2017-11-17T15:59:24.486Z,9.00
2017-11-17T16:01:58.075Z,8.90
2017-11-17T16:04:32.646Z,8.90
2017-11-17T16:07:06.235Z,8.90
2017-11-17T16:09:40.562Z,8.90
2017-11-17T16:12:14.339Z,8.90
2017-11-17T16:14:47.978Z,8.90
2017-11-17T16:17:21.570Z,8.80
2017-11-17T16:19:55.143Z,8.80
2017-11-17T16:22:28.781Z,8.80
2017-11-17T16:25:02.784Z,8.80
2017-11-17T16:27:36.482Z,8.80
2017-11-17T16:30:10.190Z,8.80
2017-11-17T16:32:43.746Z,8.90
2017-11-17T16:35:17.257Z,8.90
2017-11-17T16:37:50.790Z,8.90
2017-11-17T16:40:24.470Z,8.80
2017-11-17T16:42:58.091Z,8.90
2017-11-17T16:45:31.695Z,8.90
2017-11-17T16:48:05.498Z,8.80
2017-11-17T16:50:39.154Z,8.80
2017-11-17T16:53:12.907Z,8.80
2017-11-17T16:55:47.306Z,8.90
2017-11-17T16:58:20.926Z,8.90
2017-11-17T17:00:54.494Z,8.90
2017-11-17T17:03:28.023Z,8.80
2017-11-17T17:06:01.611Z,8.90
2017-11-17T17:08:35.227Z,8.90
2017-11-17T17:11:08.955Z,8.90
2017-11-17T17:13:42.433Z,8.90
2017-11-17T17:16:16.026Z,8.90
2017-11-17T17:18:50.564Z,8.90
2017-11-17T17:21:24.055Z,8.80
2017-11-17T17:23:57.763Z,8.90
2017-11-17T17:26:32.378Z,8.90
2017-11-17T17:29:06.798Z,8.90
2017-11-17T17:31:40.606Z,8.90
2017-11-17T17:34:14.206Z,8.90
2017-11-17T17:36:47.679Z,8.80
2017-11-17T17:39:22.030Z,8.80
2017-11-17T17:41:55.731Z,8.80
2017-11-17T17:44:29.187Z,8.80
2017-11-17T17:47:03.643Z,8.90
2017-11-17T17:49:37.345Z,8.90
2017-11-17T17:52:11.151Z,8.90
2017-11-17T17:54:45.466Z,8.90
2017-11-17T17:57:18.967Z,8.90
2017-11-17T17:59:52.459Z,8.90
2017-11-17T18:02:26.238Z,8.90
2017-11-17T18:04:59.971Z,8.80
2017-11-17T18:07:33.778Z,8.90
2017-11-17T18:10:08.307Z,8.90
2017-11-17T18:12:41.859Z,8.90
2017-11-17T18:15:15.560Z,8.90
2017-11-17T18:17:49.169Z,8.90
2017-11-17T18:20:22.807Z,8.90
2017-11-17T18:22:56.411Z,8.90
2017-11-17T18:25:29.973Z,8.90
2017-11-17T18:28:04.220Z,8.90
2017-11-17T18:30:38.611Z,8.90
2017-11-17T18:33:12.149Z,8.90
2017-11-17T18:35:46.381Z,8.90
2017-11-17T18:38:19.995Z,8.90
2017-11-17T18:40:53.448Z,8.90
2017-11-17T18:43:26.926Z,9.00
2017-11-17T18:46:00.418Z,8.90
2017-11-17T18:48:34.080Z,9.00
2017-11-17T18:51:08.446Z,8.90
2017-11-17T18:53:42.063Z,8.90
2017-11-17T18:56:15.681Z,8.90
2017-11-17T18:58:50.229Z,8.90
2017-11-17T19:01:23.811Z,8.90
2017-11-17T19:03:57.636Z,8.90
2017-11-17T19:06:31.176Z,8.90
2017-11-17T19:09:05.498Z,8.90
2017-11-17T19:11:39.031Z,9.00
2017-11-17T19:14:12.648Z,8.90
2017-11-17T19:16:46.471Z,8.90
2017-11-17T19:19:20.197Z,8.80
2017-11-17T19:21:53.833Z,8.90
2017-11-17T19:24:27.444Z,8.90
2017-11-17T19:27:00.880Z,8.90
2017-11-17T19:29:34.390Z,8.90
2017-11-17T19:32:07.826Z,8.80
2017-11-17T19:34:41.475Z,8.80
2017-11-17T19:37:14.915Z,8.90
2017-11-17T19:39:48.449Z,8.90
2017-11-17T19:42:22.094Z,9.00
2017-11-17T19:44:55.627Z,9.10
2017-11-17T19:47:29.198Z,9.10
2017-11-17T19:50:02.850Z,9.10
2017-11-17T19:52:36.481Z,9.10
2017-11-17T19:55:10.131Z,9.10
2017-11-17T19:57:43.638Z,9.00
2017-11-17T20:00:17.287Z,8.90
2017-11-17T20:02:50.802Z,9.00
2017-11-17T20:05:24.331Z,8.90
2017-11-17T20:07:57.890Z,8.90
2017-11-17T20:10:31.403Z,8.90
2017-11-17T20:13:04.936Z,9.00
2017-11-17T20:15:39.225Z,8.90
2017-11-17T20:18:13.430Z,8.90
2017-11-17T20:20:47.018Z,8.90
2017-11-17T20:23:20.525Z,9.00
2017-11-17T20:25:54.191Z,9.00
2017-11-17T20:28:28.553Z,8.90
2017-11-17T20:31:02.783Z,8.90
2017-11-17T20:33:36.338Z,8.90
2017-11-17T20:36:09.911Z,8.90
2017-11-17T20:38:43.579Z,9.00
2017-11-17T20:41:17.106Z,9.00
2017-11-17T20:43:51.399Z,8.90
2017-11-17T20:46:25.074Z,8.90
2017-11-17T20:48:58.583Z,8.90
2017-11-17T20:51:32.131Z,8.90
2017-11-17T20:54:05.720Z,8.90
2017-11-17T20:56:39.178Z,8.90
2017-11-17T20:59:12.676Z,9.00
2017-11-17T21:01:46.223Z,8.90
2017-11-17T21:04:20.495Z,8.80
2017-11-17T21:06:53.999Z,8.80
2017-11-17T21:09:27.441Z,8.80
2017-11-17T21:12:00.983Z,8.80
2017-11-17T21:14:34.415Z,8.80
2017-11-17T21:17:08.067Z,8.80
2017-11-17T21:19:41.570Z,8.80
2017-11-17T21:22:15.230Z,8.80
2017-11-17T21:24:49.622Z,8.80
2017-11-17T21:27:23.274Z,8.90
2017-11-17T21:29:56.714Z,8.80
2017-11-17T21:32:30.923Z,8.80
2017-11-17T21:35:05.239Z,8.80
2017-11-17T21:37:38.788Z,8.80
2017-11-17T21:40:12.223Z,8.90
2017-11-17T21:42:45.873Z,8.80
2017-11-17T21:45:19.414Z,8.70
2017-11-17T21:47:52.970Z,8.80
2017-11-17T21:50:27.267Z,8.80
2017-11-17T21:53:01.494Z,8.80
2017-11-17T21:55:34.947Z,8.80
2017-11-17T21:58:08.491Z,8.80
2017-11-17T22:00:42.705Z,8.80
2017-11-17T22:03:16.919Z,8.70
2017-11-17T22:05:51.123Z,8.80
2017-11-17T22:08:24.658Z,8.80
2017-11-17T22:10:58.116Z,8.80
2017-11-17T22:13:31.778Z,8.80
2017-11-17T22:16:05.296Z,8.90
2017-11-17T22:18:38.947Z,8.90
2017-11-17T22:21:12.455Z,9.00
2017-11-17T22:23:46.050Z,9.00
2017-11-17T22:26:19.686Z,9.00
2017-11-17T22:28:53.342Z,8.90
2017-11-17T22:31:27.052Z,8.90
2017-11-17T22:34:00.562Z,8.90
2017-11-17T22:36:34.028Z,8.90
2017-11-17T22:39:08.434Z,8.90
2017-11-17T22:41:42.114Z,8.90
2017-11-17T22:44:15.636Z,8.80
2017-11-17T22:46:49.282Z,8.80
2017-11-17T22:49:22.994Z,8.90
2017-11-17T22:51:56.546Z,8.80
2017-11-17T22:54:30.194Z,8.80
2017-11-17T22:57:04.522Z,8.80
2017-11-17T22:59:38.208Z,8.80
2017-11-17T23:02:11.763Z,8.80
2017-11-17T23:04:45.359Z,8.80
2017-11-17T23:07:18.843Z,8.80
2017-11-17T23:09:52.605Z,9.00
2017-11-17T23:12:26.307Z,9.00
2017-11-17T23:15:00.010Z,8.90
2017-11-17T23:17:33.626Z,8.80
2017-11-17T23:20:07.323Z,8.80
2017-11-17T23:22:40.872Z,8.80
2017-11-17T23:25:14.520Z,8.80
2017-11-17T23:27:48.031Z,8.80
2017-11-17T23:30:21.667Z,8.90
2017-11-17T23:32:55.302Z,8.90
2017-11-17T23:35:29.519Z,9.00
2017-11-17T23:38:03.048Z,8.90
2017-11-17T23:40:36.703Z,8.90
2017-11-17T23:43:10.143Z,9.00
2017-11-17T23:45:44.439Z,8.90
2017-11-17T23:48:18.661Z,8.80
2017-11-17T23:50:52.214Z,8.90
2017-11-17T23:53:25.734Z,8.90
2017-11-17T23:55:59.962Z,8.80
2017-11-17T23:58:34.070Z,8.80
